Decoded METAR's for South Africa

 
 
Print Page

Back to Weather Page

 
 

Bloemfontein - South Africa, FABL

ADDS - TAFS form results

Aviation Digital Data Service (ADDS)

Output produced by TAFs form (0732 UTC 24 November 2017)
found at http://aviationweather.gov/adds/tafs/
 
METAR text: FABL 240700Z 29005KT 220V350 CAVOK 22/05 Q1020 NOSIG
Conditions at: FABL (BLOEMFONTEIN/HER, ZA) observed 0700 UTC 24 November 2017
Temperature: 22.0°C (72°F)
Dewpoint: 5.0°C (41°F) [RH = 33%]
Pressure (altimeter): 30.12 inches Hg (1020.0 mb)
Winds: from the WNW (290 degrees) at 6 MPH (5 knots; 2.6 m/s)
Visibility: 6 or more miles (10+ km)
Ceiling: ceiling and visibility are OK
Clouds: unknown
Weather: no significant weather observed at this time

Array
Cape Town - South Africa, FACT

ADDS - TAFS form results

Aviation Digital Data Service (ADDS)

Output produced by TAFs form (0732 UTC 24 November 2017)
found at http://aviationweather.gov/adds/tafs/
 
METAR text: FACT 240700Z 16011KT 9999 FEW030 19/11 Q1024 NOSIG
Conditions at: FACT (CAPETOWN/DF MALA, ZA) observed 0700 UTC 24 November 2017
Temperature: 19.0°C (66°F)
Dewpoint: 11.0°C (52°F) [RH = 60%]
Pressure (altimeter): 30.24 inches Hg (1024.0 mb)
Winds: from the SSE (160 degrees) at 13 MPH (11 knots; 5.7 m/s)
Visibility: 6 or more miles (10+ km)
Ceiling: at least 12,000 feet AGL
Clouds: few clouds at 3000 feet AGL
Weather: no significant weather observed at this time

Array
Durban - South Africa, FALE

ADDS - TAFS form results

Aviation Digital Data Service (ADDS)

Output produced by TAFs form (0732 UTC 24 November 2017)
found at http://aviationweather.gov/adds/tafs/
 
METAR text: FALE 240700Z 05009KT 020V090 CAVOK 22/14 Q1017 NOSIG
Conditions at: FALE (DURBAN SHAKA , ZA) observed 0700 UTC 24 November 2017
Temperature: 22.0°C (72°F)
Dewpoint: 14.0°C (57°F) [RH = 60%]
Pressure (altimeter): 30.03 inches Hg (1017.0 mb)
Winds: from the NE (50 degrees) at 10 MPH (9 knots; 4.7 m/s)
Visibility: 6 or more miles (10+ km)
Ceiling: ceiling and visibility are OK
Clouds: unknown
Weather: no significant weather observed at this time

Array
East London - South Africa, FAEL

ADDS - TAFS form results

Aviation Digital Data Service (ADDS)

Output produced by TAFs form (0732 UTC 24 November 2017)
found at http://aviationweather.gov/adds/tafs/
 
METAR text: FAEL 240709Z 10009KT 070V130 9000 DZ FEW006 BKN008 OVC047 17/15 Q1020
Conditions at: FAEL (EAST LONDON/SCHO, ZA) observed 0709 UTC 24 November 2017
Temperature: 17.0°C (63°F)
Dewpoint: 15.0°C (59°F) [RH = 88%]
Pressure (altimeter): 30.12 inches Hg (1020.0 mb)
Winds: from the E (100 degrees) at 10 MPH (9 knots; 4.7 m/s)
Visibility: 6 miles (9 km)
Ceiling: 800 feet AGL
Clouds: few clouds at 600 feet AGL
broken clouds at 800 feet AGL
overcast cloud deck at 4700 feet AGL
Weather: DZ  (drizzle)

Array
George - South Africa, FAGG

ADDS - TAFS form results

Aviation Digital Data Service (ADDS)

Output produced by TAFs form (0732 UTC 24 November 2017)
found at http://aviationweather.gov/adds/tafs/
 
METAR text: FAGG 240700Z 21009KT 9999 FEW036 SCT045 17/12 Q1023
Conditions at: FAGG (GEORGE/P. W. BOT, ZA) observed 0700 UTC 24 November 2017
Temperature: 17.0°C (63°F)
Dewpoint: 12.0°C (54°F) [RH = 72%]
Pressure (altimeter): 30.21 inches Hg (1023.0 mb)
Winds: from the SSW (210 degrees) at 10 MPH (9 knots; 4.7 m/s)
Visibility: 6 or more miles (10+ km)
Ceiling: at least 12,000 feet AGL
Clouds: few clouds at 3600 feet AGL
scattered clouds at 4500 feet AGL
Weather: no significant weather observed at this time

Array
Hoedspruit - South Africa, FAHS

ADDS - TAFS form results

Aviation Digital Data Service (ADDS)

Output produced by TAFs form (0732 UTC 24 November 2017)
found at http://aviationweather.gov/adds/tafs/
 
METAR text: FAHS 240700Z AUTO 19003KT //// // ////// M45/M48 Q1021
Conditions at: FAHS (HOEDSPRUIT (SAAF, ZA) observed 0700 UTC 24 November 2017
Temperature: -45.0°C (-49°F)
Dewpoint: -48.0°C (-54°F) [RH = 72%]
Pressure (altimeter): 30.15 inches Hg (1021.0 mb)
Winds: from the S (190 degrees) at 3 MPH (3 knots; 1.6 m/s)
Visibility: missing
Ceiling: unknown
Clouds: missing
Weather: no significant weather observed at this time

Array
Lanseria - South Africa, FALA

ADDS - TAFS form results

Aviation Digital Data Service (ADDS)

Output produced by TAFs form (0732 UTC 24 November 2017)
found at http://aviationweather.gov/adds/tafs/
 
METAR text: FALA 240700Z 03008KT CAVOK 20/12 Q1023 NOSIG
Conditions at: FALA (LANSERIA (CIV/MI, ZA) observed 0700 UTC 24 November 2017
Temperature: 20.0°C (68°F)
Dewpoint: 12.0°C (54°F) [RH = 60%]
Pressure (altimeter): 30.21 inches Hg (1023.0 mb)
Winds: from the NNE (30 degrees) at 9 MPH (8 knots; 4.2 m/s)
Visibility: 6 or more miles (10+ km)
Ceiling: ceiling and visibility are OK
Clouds: unknown
Weather: no significant weather observed at this time

Array
Makhado AFB - South Africa, FALM

ADDS - TAFS form results

Aviation Digital Data Service (ADDS)

Output produced by TAFs form (0732 UTC 24 November 2017)
found at http://aviationweather.gov/adds/tafs/
 
METAR text: FALM 240500Z 12010KT 9999 BKN013 18/// Q1022
Conditions at: FALM (MAKHADO AFB , ZA) observed 0500 UTC 24 November 2017
Temperature: missing
Dewpoint: missing
Pressure (altimeter): 30.18 inches Hg (1022.0 mb)
Winds: from the ESE (120 degrees) at 12 MPH (10 knots; 5.2 m/s)
Visibility: 6 or more miles (10+ km)
Ceiling: 1300 feet AGL
Clouds: broken clouds at 1300 feet AGL
Weather: no significant weather observed at this time

Array
Mmabatho - South Africa, FAMM

ADDS - TAFS form results

Aviation Digital Data Service (ADDS)

Output produced by TAFs form (0732 UTC 24 November 2017)
found at http://aviationweather.gov/adds/tafs/
 
METAR text: FAMM 240713Z 35009KT 9999 TS SCT035 FEW040CB 24/13 Q1022 NOSIG
Conditions at: FAMM (MMABATHO INTL AR, ZA) observed 0713 UTC 24 November 2017
Temperature: 24.0°C (75°F)
Dewpoint: 13.0°C (55°F) [RH = 50%]
Pressure (altimeter): 30.18 inches Hg (1022.0 mb)
Winds: from the N (350 degrees) at 10 MPH (9 knots; 4.7 m/s)
Visibility: 6 or more miles (10+ km)
Ceiling: at least 12,000 feet AGL
Clouds: scattered clouds at 3500 feet AGL
few clouds at 4000 feet AGL
Weather: TS  (thunderstorm)

Array
ORT Johannesburg - South Africa, FAOR

ADDS - TAFS form results

Aviation Digital Data Service (ADDS)

Output produced by TAFs form (0732 UTC 24 November 2017)
found at http://aviationweather.gov/adds/tafs/
 
METAR text: FAOR 240700Z 01015KT 9999 FEW015 18/13 Q1024 NOSIG
Conditions at: FAOR (JOHANNESBURG/TAM, ZA) observed 0700 UTC 24 November 2017
Temperature: 18.0°C (64°F)
Dewpoint: 13.0°C (55°F) [RH = 73%]
Pressure (altimeter): 30.24 inches Hg (1024.0 mb)
Winds: from the N (10 degrees) at 17 MPH (15 knots; 7.8 m/s)
Visibility: 6 or more miles (10+ km)
Ceiling: at least 12,000 feet AGL
Clouds: few clouds at 1500 feet AGL
Weather: no significant weather observed at this time

Array
Kruger Mpumalanga - South Africa, FAKN

ADDS - TAFS form results

Aviation Digital Data Service (ADDS)

Output produced by TAFs form (0732 UTC 24 November 2017)
found at http://aviationweather.gov/adds/tafs/
 
METAR text: FAKN 240700Z AUTO 06004KT //// // ////// 19/13 Q1021
Conditions at: FAKN (KRUGER MPUMALANG, ZA) observed 0700 UTC 24 November 2017
Temperature: 19.0°C (66°F)
Dewpoint: 13.0°C (55°F) [RH = 68%]
Pressure (altimeter): 30.15 inches Hg (1021.0 mb)
Winds: from the ENE (60 degrees) at 5 MPH (4 knots; 2.1 m/s)
Visibility: missing
Ceiling: unknown
Clouds: missing
Weather: no significant weather observed at this time

Array
Pietermaritzburg - South Africa, FAPM

ADDS - TAFS form results

Aviation Digital Data Service (ADDS)

Output produced by TAFs form (0732 UTC 24 November 2017)
found at http://aviationweather.gov/adds/tafs/
 
You entered "FAPM"

Sorry, either there are no data available for your request or you did not enter any valid ICAO airport abbreviations.

See stations.txt for a list of known METAR and TAF locations. Then go back to the ADDS METARs or TAFs page and try again
 
Please try again and, if problems persist, then send mail to ncep.awc.adds@noaa.gov
Array
Polokwane - South Africa, FAPP

ADDS - TAFS form results

Aviation Digital Data Service (ADDS)

Output produced by TAFs form (0732 UTC 24 November 2017)
found at http://aviationweather.gov/adds/tafs/
 
METAR text: FAPP 240700Z 06005KT 9999 FEW025 19/13 Q1022 NOSIG
Conditions at: FAPP (POLOKWANE INTL , ZA) observed 0700 UTC 24 November 2017
Temperature: 19.0°C (66°F)
Dewpoint: 13.0°C (55°F) [RH = 68%]
Pressure (altimeter): 30.18 inches Hg (1022.0 mb)
Winds: from the ENE (60 degrees) at 6 MPH (5 knots; 2.6 m/s)
Visibility: 6 or more miles (10+ km)
Ceiling: at least 12,000 feet AGL
Clouds: few clouds at 2500 feet AGL
Weather: no significant weather observed at this time

Array
Port Elizabeth - South Africa, FAPE

ADDS - TAFS form results

Aviation Digital Data Service (ADDS)

Output produced by TAFs form (0732 UTC 24 November 2017)
found at http://aviationweather.gov/adds/tafs/
 
METAR text: FAPE 240700Z 18009KT 6000 -SHRA SCT010 BKN032 OVC046 13/12 Q1023 RERA TEMPO 5000 SHRA
Conditions at: FAPE (PORT ELIZABETH , ZA) observed 0700 UTC 24 November 2017
Temperature: 13.0°C (55°F)
Dewpoint: 12.0°C (54°F) [RH = 94%]
Pressure (altimeter): 30.21 inches Hg (1023.0 mb)
Winds: from the S (180 degrees) at 10 MPH (9 knots; 4.7 m/s)
Visibility: 4 miles (6 km)
Ceiling: 3200 feet AGL
Clouds: scattered clouds at 1000 feet AGL
broken clouds at 3200 feet AGL
overcast cloud deck at 4600 feet AGL
Weather: -SHRA  (light rain showers)

Array
Richards Bay - South Africa, FATB

ADDS - TAFS form results

Aviation Digital Data Service (ADDS)

Output produced by TAFs form (0732 UTC 24 November 2017)
found at http://aviationweather.gov/adds/tafs/
 
You entered "FATB"

Sorry, either there are no data available for your request or you did not enter any valid ICAO airport abbreviations.

See stations.txt for a list of known METAR and TAF locations. Then go back to the ADDS METARs or TAFs page and try again
 
Please try again and, if problems persist, then send mail to ncep.awc.adds@noaa.gov
Array
Upington - South Africa, FAUP

ADDS - TAFS form results

Aviation Digital Data Service (ADDS)

Output produced by TAFs form (0732 UTC 24 November 2017)
found at http://aviationweather.gov/adds/tafs/
 
METAR text: FAUP 240700Z 17006KT CAVOK 20/M00 Q1019 NOSIG
Conditions at: FAUP (UPINGTON/PIERRE , ZA) observed 0700 UTC 24 November 2017
Temperature: 20.0°C (68°F)
Dewpoint: 0.0°C (32°F) [RH = 26%]
Pressure (altimeter): 30.09 inches Hg (1019.0 mb)
Winds: from the S (170 degrees) at 7 MPH (6 knots; 3.1 m/s)
Visibility: 6 or more miles (10+ km)
Ceiling: ceiling and visibility are OK
Clouds: unknown
Weather: no significant weather observed at this time

Array
Wonderboom - South Africa, FAWB

ADDS - TAFS form results

Aviation Digital Data Service (ADDS)

Output produced by TAFs form (0732 UTC 24 November 2017)
found at http://aviationweather.gov/adds/tafs/
 
METAR text: FAWB 240700Z AUTO 00000KT //// // ////// 22/14 Q1022
Conditions at: FAWB (WONDERBOOM/PRETO, ZA) observed 0700 UTC 24 November 2017
Temperature: 22.0°C (72°F)
Dewpoint: 14.0°C (57°F) [RH = 60%]
Pressure (altimeter): 30.18 inches Hg (1022.0 mb)
Winds: calm
Visibility: missing
Ceiling: unknown
Clouds: missing
Weather: no significant weather observed at this time

Array